sensor_id;sensor_type;location;lat;lon;timestamp;P1;durP1;ratioP1;P2;durP2;ratioP2
69596;SDS011;56802;51.184;-115.558;2022-10-16T00:01:49;5.00;;;1.70;;
69596;SDS011;56802;51.184;-115.558;2022-10-16T00:04:18;5.00;;;2.00;;
69596;SDS011;56802;51.184;-115.558;2022-10-16T00:06:48;5.60;;;1.90;;
69596;SDS011;56802;51.184;-115.558;2022-10-16T00:09:18;5.30;;;1.90;;
69596;SDS011;56802;51.184;-115.558;2022-10-16T00:11:48;4.70;;;1.60;;
69596;SDS011;56802;51.184;-115.558;2022-10-16T00:14:17;6.40;;;2.00;;
69596;SDS011;56802;51.184;-115.558;2022-10-16T00:16:47;5.80;;;2.00;;
69596;SDS011;56802;51.184;-115.558;2022-10-16T00:19:16;5.60;;;2.30;;
69596;SDS011;56802;51.184;-115.558;2022-10-16T00:21:46;6.40;;;2.30;;
69596;SDS011;56802;51.184;-115.558;2022-10-16T00:24:15;5.40;;;2.30;;
69596;SDS011;56802;51.184;-115.558;2022-10-16T00:26:50;6.10;;;2.30;;
69596;SDS011;56802;51.184;-115.558;2022-10-16T00:29:19;6.70;;;2.60;;
69596;SDS011;56802;51.184;-115.558;2022-10-16T00:31:48;6.60;;;2.20;;
69596;SDS011;56802;51.184;-115.558;2022-10-16T00:34:17;5.30;;;2.00;;
69596;SDS011;56802;51.184;-115.558;2022-10-16T00:36:47;4.90;;;1.90;;
69596;SDS011;56802;51.184;-115.558;2022-10-16T00:39:16;5.10;;;1.90;;
69596;SDS011;56802;51.184;-115.558;2022-10-16T00:41:45;5.60;;;2.10;;
69596;SDS011;56802;51.184;-115.558;2022-10-16T00:44:50;5.00;;;2.00;;
69596;SDS011;56802;51.184;-115.558;2022-10-16T00:47:32;4.80;;;1.80;;
69596;SDS011;56802;51.184;-115.558;2022-10-16T00:50:24;5.40;;;1.90;;
69596;SDS011;56802;51.184;-115.558;2022-10-16T00:53:03;5.10;;;1.80;;
69596;SDS011;56802;51.184;-115.558;2022-10-16T00:55:32;5.30;;;2.00;;
69596;SDS011;56802;51.184;-115.558;2022-10-16T00:58:07;5.30;;;1.90;;
69596;SDS011;56802;51.184;-115.558;2022-10-16T01:00:37;4.50;;;1.40;;
69596;SDS011;56802;51.184;-115.558;2022-10-16T01:03:30;5.00;;;1.70;;
69596;SDS011;56802;51.184;-115.558;2022-10-16T01:06:29;5.30;;;1.90;;
69596;SDS011;56802;51.184;-115.558;2022-10-16T01:12:29;6.10;;;2.00;;
69596;SDS011;56802;51.184;-115.558;2022-10-16T01:18:22;6.40;;;2.00;;
69596;SDS011;56802;51.184;-115.558;2022-10-16T01:27:17;8.40;;;2.10;;
69596;SDS011;56802;51.184;-115.558;2022-10-16T01:30:12;7.60;;;1.90;;
69596;SDS011;56802;51.184;-115.558;2022-10-16T01:32:50;5.90;;;2.00;;
69596;SDS011;56802;51.184;-115.558;2022-10-16T01:35:36;8.60;;;2.10;;
69596;SDS011;56802;51.184;-115.558;2022-10-16T01:38:20;7.60;;;2.00;;
69596;SDS011;56802;51.184;-115.558;2022-10-16T01:40:54;6.40;;;2.30;;
69596;SDS011;56802;51.184;-115.558;2022-10-16T01:43:35;5.60;;;1.80;;
69596;SDS011;56802;51.184;-115.558;2022-10-16T01:46:08;6.00;;;2.00;;
69596;SDS011;56802;51.184;-115.558;2022-10-16T01:48:41;5.60;;;1.70;;
69596;SDS011;56802;51.184;-115.558;2022-10-16T01:51:13;7.60;;;2.10;;
69596;SDS011;56802;51.184;-115.558;2022-10-16T01:53:49;8.90;;;2.20;;
69596;SDS011;56802;51.184;-115.558;2022-10-16T01:56:24;8.00;;;2.50;;
69596;SDS011;56802;51.184;-115.558;2022-10-16T01:59:11;6.10;;;2.00;;
69596;SDS011;56802;51.184;-115.558;2022-10-16T02:01:47;9.00;;;2.50;;
69596;SDS011;56802;51.184;-115.558;2022-10-16T02:04:33;9.40;;;2.00;;
69596;SDS011;56802;51.184;-115.558;2022-10-16T02:07:05;7.80;;;2.20;;
69596;SDS011;56802;51.184;-115.558;2022-10-16T02:09:35;6.90;;;2.30;;
69596;SDS011;56802;51.184;-115.558;2022-10-16T02:12:19;9.20;;;2.60;;
69596;SDS011;56802;51.184;-115.558;2022-10-16T02:14:58;8.90;;;2.60;;
69596;SDS011;56802;51.184;-115.558;2022-10-16T02:17:27;8.20;;;2.40;;
69596;SDS011;56802;51.184;-115.558;2022-10-16T02:19:57;9.40;;;2.40;;
69596;SDS011;56802;51.184;-115.558;2022-10-16T02:22:32;10.70;;;2.90;;
69596;SDS011;56802;51.184;-115.558;2022-10-16T02:30:46;6.20;;;2.00;;
69596;SDS011;56802;51.184;-115.558;2022-10-16T02:33:25;6.90;;;2.30;;
69596;SDS011;56802;51.184;-115.558;2022-10-16T02:35:57;7.70;;;2.40;;
69596;SDS011;56802;51.184;-115.558;2022-10-16T02:38:27;10.70;;;3.20;;
69596;SDS011;56802;51.184;-115.558;2022-10-16T02:40:58;8.60;;;3.00;;
69596;SDS011;56802;51.184;-115.558;2022-10-16T02:43:28;9.00;;;2.90;;
69596;SDS011;56802;51.184;-115.558;2022-10-16T02:45:57;9.10;;;2.20;;
69596;SDS011;56802;51.184;-115.558;2022-10-16T02:48:27;7.10;;;1.90;;
69596;SDS011;56802;51.184;-115.558;2022-10-16T02:50:56;7.10;;;2.10;;
69596;SDS011;56802;51.184;-115.558;2022-10-16T02:53:25;8.40;;;2.00;;
69596;SDS011;56802;51.184;-115.558;2022-10-16T02:55:55;6.20;;;1.80;;
69596;SDS011;56802;51.184;-115.558;2022-10-16T02:58:24;9.60;;;2.30;;
69596;SDS011;56802;51.184;-115.558;2022-10-16T03:00:55;5.60;;;2.00;;
69596;SDS011;56802;51.184;-115.558;2022-10-16T03:03:24;6.90;;;2.20;;
69596;SDS011;56802;51.184;-115.558;2022-10-16T03:05:53;8.70;;;2.10;;
69596;SDS011;56802;51.184;-115.558;2022-10-16T03:08:23;7.50;;;2.10;;
69596;SDS011;56802;51.184;-115.558;2022-10-16T03:10:53;6.50;;;1.90;;
69596;SDS011;56802;51.184;-115.558;2022-10-16T03:13:22;7.80;;;2.30;;
69596;SDS011;56802;51.184;-115.558;2022-10-16T03:15:51;6.60;;;2.10;;
69596;SDS011;56802;51.184;-115.558;2022-10-16T03:18:21;6.40;;;1.90;;
69596;SDS011;56802;51.184;-115.558;2022-10-16T03:20:50;8.60;;;2.00;;
69596;SDS011;56802;51.184;-115.558;2022-10-16T03:23:19;7.10;;;2.00;;
69596;SDS011;56802;51.184;-115.558;2022-10-16T03:25:49;7.00;;;2.20;;
69596;SDS011;56802;51.184;-115.558;2022-10-16T03:28:18;6.80;;;1.80;;
69596;SDS011;56802;51.184;-115.558;2022-10-16T03:30:47;6.50;;;2.00;;
69596;SDS011;56802;51.184;-115.558;2022-10-16T03:33:16;7.70;;;2.20;;
69596;SDS011;56802;51.184;-115.558;2022-10-16T03:35:51;6.30;;;2.20;;
69596;SDS011;56802;51.184;-115.558;2022-10-16T03:38:22;6.70;;;2.20;;
69596;SDS011;56802;51.184;-115.558;2022-10-16T03:40:51;7.20;;;2.30;;
69596;SDS011;56802;51.184;-115.558;2022-10-16T03:43:20;7.30;;;2.10;;
69596;SDS011;56802;51.184;-115.558;2022-10-16T03:45:53;8.10;;;2.30;;
69596;SDS011;56802;51.184;-115.558;2022-10-16T03:48:23;5.80;;;2.30;;
69596;SDS011;56802;51.184;-115.558;2022-10-16T03:50:52;7.80;;;2.60;;
69596;SDS011;56802;51.184;-115.558;2022-10-16T03:53:25;6.50;;;1.90;;
69596;SDS011;56802;51.184;-115.558;2022-10-16T03:55:55;6.70;;;2.00;;
69596;SDS011;56802;51.184;-115.558;2022-10-16T03:58:24;6.10;;;2.00;;
69596;SDS011;56802;51.184;-115.558;2022-10-16T04:00:53;6.90;;;2.40;;
69596;SDS011;56802;51.184;-115.558;2022-10-16T04:03:23;6.80;;;2.30;;
69596;SDS011;56802;51.184;-115.558;2022-10-16T04:05:52;9.40;;;2.50;;
69596;SDS011;56802;51.184;-115.558;2022-10-16T04:08:22;9.60;;;2.60;;
69596;SDS011;56802;51.184;-115.558;2022-10-16T04:10:51;11.60;;;3.40;;
69596;SDS011;56802;51.184;-115.558;2022-10-16T04:13:21;13.20;;;3.50;;
69596;SDS011;56802;51.184;-115.558;2022-10-16T04:15:50;7.80;;;3.00;;
69596;SDS011;56802;51.184;-115.558;2022-10-16T04:18:19;9.70;;;2.60;;
69596;SDS011;56802;51.184;-115.558;2022-10-16T04:20:49;7.40;;;2.00;;
69596;SDS011;56802;51.184;-115.558;2022-10-16T04:23:18;8.80;;;2.70;;
69596;SDS011;56802;51.184;-115.558;2022-10-16T04:25:48;6.80;;;2.60;;
69596;SDS011;56802;51.184;-115.558;2022-10-16T04:28:17;8.50;;;2.80;;
69596;SDS011;56802;51.184;-115.558;2022-10-16T04:30:46;6.90;;;2.40;;
69596;SDS011;56802;51.184;-115.558;2022-10-16T04:33:16;5.90;;;2.10;;
69596;SDS011;56802;51.184;-115.558;2022-10-16T04:35:45;7.40;;;2.40;;
69596;SDS011;56802;51.184;-115.558;2022-10-16T04:38:14;6.50;;;2.50;;
69596;SDS011;56802;51.184;-115.558;2022-10-16T04:40:43;7.50;;;2.60;;
69596;SDS011;56802;51.184;-115.558;2022-10-16T04:43:12;8.40;;;2.30;;
69596;SDS011;56802;51.184;-115.558;2022-10-16T04:45:42;6.50;;;2.20;;
69596;SDS011;56802;51.184;-115.558;2022-10-16T04:48:11;8.20;;;2.50;;
69596;SDS011;56802;51.184;-115.558;2022-10-16T04:50:41;8.40;;;2.30;;
69596;SDS011;56802;51.184;-115.558;2022-10-16T04:53:10;7.30;;;2.30;;
69596;SDS011;56802;51.184;-115.558;2022-10-16T04:55:41;9.00;;;2.80;;
69596;SDS011;56802;51.184;-115.558;2022-10-16T04:58:11;6.50;;;2.80;;
69596;SDS011;56802;51.184;-115.558;2022-10-16T05:00:41;9.40;;;2.70;;
69596;SDS011;56802;51.184;-115.558;2022-10-16T05:03:10;6.60;;;2.70;;
69596;SDS011;56802;51.184;-115.558;2022-10-16T05:05:44;6.40;;;2.90;;
69596;SDS011;56802;51.184;-115.558;2022-10-16T05:08:15;7.60;;;3.10;;
69596;SDS011;56802;51.184;-115.558;2022-10-16T05:10:45;7.00;;;2.20;;
69596;SDS011;56802;51.184;-115.558;2022-10-16T05:13:14;7.00;;;2.20;;
69596;SDS011;56802;51.184;-115.558;2022-10-16T05:15:47;6.80;;;2.20;;
69596;SDS011;56802;51.184;-115.558;2022-10-16T05:18:16;7.30;;;2.20;;
69596;SDS011;56802;51.184;-115.558;2022-10-16T05:20:46;5.60;;;2.40;;
69596;SDS011;56802;51.184;-115.558;2022-10-16T05:23:15;5.80;;;1.80;;
69596;SDS011;56802;51.184;-115.558;2022-10-16T05:25:53;6.10;;;2.10;;
69596;SDS011;56802;51.184;-115.558;2022-10-16T05:28:27;7.20;;;2.20;;
69596;SDS011;56802;51.184;-115.558;2022-10-16T05:30:58;8.80;;;2.60;;
69596;SDS011;56802;51.184;-115.558;2022-10-16T05:33:27;6.80;;;2.20;;
69596;SDS011;56802;51.184;-115.558;2022-10-16T05:35:56;7.90;;;2.20;;
69596;SDS011;56802;51.184;-115.558;2022-10-16T05:38:29;6.10;;;1.90;;
69596;SDS011;56802;51.184;-115.558;2022-10-16T05:40:58;5.90;;;2.00;;
69596;SDS011;56802;51.184;-115.558;2022-10-16T05:43:28;5.40;;;2.00;;
69596;SDS011;56802;51.184;-115.558;2022-10-16T05:46:02;6.10;;;2.20;;
69596;SDS011;56802;51.184;-115.558;2022-10-16T05:48:33;7.60;;;2.40;;
69596;SDS011;56802;51.184;-115.558;2022-10-16T05:51:05;7.40;;;2.30;;
69596;SDS011;56802;51.184;-115.558;2022-10-16T05:53:37;5.70;;;1.80;;
69596;SDS011;56802;51.184;-115.558;2022-10-16T05:56:09;8.70;;;2.50;;
69596;SDS011;56802;51.184;-115.558;2022-10-16T05:58:41;6.50;;;2.10;;
69596;SDS011;56802;51.184;-115.558;2022-10-16T06:01:17;6.50;;;2.20;;
69596;SDS011;56802;51.184;-115.558;2022-10-16T06:03:47;7.80;;;2.00;;
69596;SDS011;56802;51.184;-115.558;2022-10-16T06:06:18;8.30;;;1.70;;
69596;SDS011;56802;51.184;-115.558;2022-10-16T06:08:51;6.20;;;2.10;;
69596;SDS011;56802;51.184;-115.558;2022-10-16T06:11:27;6.20;;;2.10;;
69596;SDS011;56802;51.184;-115.558;2022-10-16T06:14:00;7.30;;;2.30;;
69596;SDS011;56802;51.184;-115.558;2022-10-16T06:16:35;5.90;;;1.80;;
69596;SDS011;56802;51.184;-115.558;2022-10-16T06:19:05;6.70;;;2.10;;
69596;SDS011;56802;51.184;-115.558;2022-10-16T06:21:36;6.30;;;2.40;;
69596;SDS011;56802;51.184;-115.558;2022-10-16T06:24:05;6.10;;;2.00;;
69596;SDS011;56802;51.184;-115.558;2022-10-16T06:26:35;7.30;;;2.10;;
69596;SDS011;56802;51.184;-115.558;2022-10-16T06:29:04;7.00;;;2.30;;
69596;SDS011;56802;51.184;-115.558;2022-10-16T06:31:34;6.20;;;2.00;;
69596;SDS011;56802;51.184;-115.558;2022-10-16T06:34:03;6.80;;;2.50;;
69596;SDS011;56802;51.184;-115.558;2022-10-16T06:36:38;6.20;;;2.40;;
69596;SDS011;56802;51.184;-115.558;2022-10-16T06:39:07;6.20;;;2.30;;
69596;SDS011;56802;51.184;-115.558;2022-10-16T06:41:37;5.50;;;2.00;;
69596;SDS011;56802;51.184;-115.558;2022-10-16T06:44:07;6.60;;;2.60;;
69596;SDS011;56802;51.184;-115.558;2022-10-16T06:46:36;5.20;;;2.10;;
69596;SDS011;56802;51.184;-115.558;2022-10-16T06:49:05;6.10;;;2.30;;
69596;SDS011;56802;51.184;-115.558;2022-10-16T06:51:35;6.10;;;1.80;;
69596;SDS011;56802;51.184;-115.558;2022-10-16T06:54:10;6.40;;;2.20;;
69596;SDS011;56802;51.184;-115.558;2022-10-16T06:56:39;5.80;;;2.30;;
69596;SDS011;56802;51.184;-115.558;2022-10-16T06:59:08;6.40;;;2.30;;
69596;SDS011;56802;51.184;-115.558;2022-10-16T07:01:37;6.30;;;2.50;;
69596;SDS011;56802;51.184;-115.558;2022-10-16T07:04:07;6.40;;;2.10;;
69596;SDS011;56802;51.184;-115.558;2022-10-16T07:06:36;7.60;;;2.10;;
69596;SDS011;56802;51.184;-115.558;2022-10-16T07:09:08;5.90;;;1.50;;
69596;SDS011;56802;51.184;-115.558;2022-10-16T07:11:40;7.80;;;2.30;;
69596;SDS011;56802;51.184;-115.558;2022-10-16T07:14:20;6.30;;;2.40;;
69596;SDS011;56802;51.184;-115.558;2022-10-16T07:16:50;6.60;;;2.30;;
69596;SDS011;56802;51.184;-115.558;2022-10-16T07:19:20;5.70;;;1.90;;
69596;SDS011;56802;51.184;-115.558;2022-10-16T07:21:49;4.80;;;1.30;;
69596;SDS011;56802;51.184;-115.558;2022-10-16T07:24:18;6.40;;;1.90;;
69596;SDS011;56802;51.184;-115.558;2022-10-16T07:26:47;6.20;;;2.10;;
69596;SDS011;56802;51.184;-115.558;2022-10-16T07:29:21;5.30;;;1.90;;
69596;SDS011;56802;51.184;-115.558;2022-10-16T07:31:53;5.00;;;1.60;;
69596;SDS011;56802;51.184;-115.558;2022-10-16T07:34:22;5.40;;;1.80;;
69596;SDS011;56802;51.184;-115.558;2022-10-16T07:36:52;5.10;;;1.70;;
69596;SDS011;56802;51.184;-115.558;2022-10-16T07:39:22;5.50;;;1.50;;
69596;SDS011;56802;51.184;-115.558;2022-10-16T07:41:51;4.70;;;1.60;;
69596;SDS011;56802;51.184;-115.558;2022-10-16T07:44:20;5.70;;;1.80;;
69596;SDS011;56802;51.184;-115.558;2022-10-16T07:46:50;5.80;;;2.10;;
69596;SDS011;56802;51.184;-115.558;2022-10-16T07:49:19;6.30;;;2.30;;
69596;SDS011;56802;51.184;-115.558;2022-10-16T07:51:48;5.90;;;2.00;;
69596;SDS011;56802;51.184;-115.558;2022-10-16T07:54:17;5.70;;;1.80;;
69596;SDS011;56802;51.184;-115.558;2022-10-16T07:56:46;5.60;;;1.80;;
69596;SDS011;56802;51.184;-115.558;2022-10-16T07:59:15;5.30;;;1.90;;
69596;SDS011;56802;51.184;-115.558;2022-10-16T08:01:45;6.40;;;2.10;;
69596;SDS011;56802;51.184;-115.558;2022-10-16T08:04:14;5.60;;;1.80;;
69596;SDS011;56802;51.184;-115.558;2022-10-16T08:06:44;5.40;;;1.70;;
69596;SDS011;56802;51.184;-115.558;2022-10-16T08:09:13;5.20;;;1.90;;
69596;SDS011;56802;51.184;-115.558;2022-10-16T08:11:42;4.80;;;1.30;;
69596;SDS011;56802;51.184;-115.558;2022-10-16T08:14:11;5.10;;;1.90;;
69596;SDS011;56802;51.184;-115.558;2022-10-16T08:16:41;5.00;;;1.80;;
69596;SDS011;56802;51.184;-115.558;2022-10-16T08:19:10;5.00;;;1.80;;
69596;SDS011;56802;51.184;-115.558;2022-10-16T08:21:39;6.00;;;2.00;;
69596;SDS011;56802;51.184;-115.558;2022-10-16T08:24:08;5.50;;;2.00;;
69596;SDS011;56802;51.184;-115.558;2022-10-16T08:26:37;5.80;;;1.80;;
69596;SDS011;56802;51.184;-115.558;2022-10-16T08:29:07;5.40;;;1.70;;
69596;SDS011;56802;51.184;-115.558;2022-10-16T08:31:36;5.00;;;1.60;;
69596;SDS011;56802;51.184;-115.558;2022-10-16T08:34:07;5.60;;;1.80;;
69596;SDS011;56802;51.184;-115.558;2022-10-16T08:36:36;6.50;;;1.60;;
69596;SDS011;56802;51.184;-115.558;2022-10-16T08:39:08;5.00;;;1.70;;
69596;SDS011;56802;51.184;-115.558;2022-10-16T08:42:07;5.30;;;1.80;;
69596;SDS011;56802;51.184;-115.558;2022-10-16T08:50:27;4.90;;;1.50;;
69596;SDS011;56802;51.184;-115.558;2022-10-16T08:52:59;5.30;;;1.90;;
69596;SDS011;56802;51.184;-115.558;2022-10-16T08:58:22;5.70;;;1.90;;
69596;SDS011;56802;51.184;-115.558;2022-10-16T09:00:57;5.00;;;1.80;;
69596;SDS011;56802;51.184;-115.558;2022-10-16T09:06:40;5.10;;;1.80;;
69596;SDS011;56802;51.184;-115.558;2022-10-16T09:12:56;5.40;;;1.80;;
69596;SDS011;56802;51.184;-115.558;2022-10-16T09:18:58;5.00;;;1.30;;
69596;SDS011;56802;51.184;-115.558;2022-10-16T09:21:31;5.50;;;1.90;;
69596;SDS011;56802;51.184;-115.558;2022-10-16T09:24:21;4.90;;;1.60;;
69596;SDS011;56802;51.184;-115.558;2022-10-16T09:26:55;4.70;;;1.50;;
69596;SDS011;56802;51.184;-115.558;2022-10-16T09:29:24;4.90;;;1.60;;
69596;SDS011;56802;51.184;-115.558;2022-10-16T09:31:55;5.20;;;1.50;;
69596;SDS011;56802;51.184;-115.558;2022-10-16T09:34:55;5.70;;;1.80;;
69596;SDS011;56802;51.184;-115.558;2022-10-16T09:37:25;5.10;;;1.70;;
69596;SDS011;56802;51.184;-115.558;2022-10-16T09:39:55;5.40;;;1.60;;
69596;SDS011;56802;51.184;-115.558;2022-10-16T09:42:36;5.10;;;1.50;;
69596;SDS011;56802;51.184;-115.558;2022-10-16T09:45:21;5.20;;;1.70;;
69596;SDS011;56802;51.184;-115.558;2022-10-16T09:47:52;5.50;;;1.80;;
69596;SDS011;56802;51.184;-115.558;2022-10-16T09:50:28;5.10;;;1.50;;
69596;SDS011;56802;51.184;-115.558;2022-10-16T09:53:06;5.10;;;1.60;;
69596;SDS011;56802;51.184;-115.558;2022-10-16T09:55:52;5.60;;;2.00;;
69596;SDS011;56802;51.184;-115.558;2022-10-16T09:58:22;4.90;;;1.60;;
69596;SDS011;56802;51.184;-115.558;2022-10-16T10:00:54;5.40;;;1.70;;
69596;SDS011;56802;51.184;-115.558;2022-10-16T10:03:45;5.60;;;1.70;;
69596;SDS011;56802;51.184;-115.558;2022-10-16T10:06:21;5.20;;;1.70;;
69596;SDS011;56802;51.184;-115.558;2022-10-16T10:09:06;5.00;;;1.70;;
69596;SDS011;56802;51.184;-115.558;2022-10-16T10:11:57;5.30;;;2.00;;
69596;SDS011;56802;51.184;-115.558;2022-10-16T10:14:35;6.20;;;2.00;;
69596;SDS011;56802;51.184;-115.558;2022-10-16T10:17:20;4.70;;;1.40;;
69596;SDS011;56802;51.184;-115.558;2022-10-16T10:20:22;4.80;;;1.40;;
69596;SDS011;56802;51.184;-115.558;2022-10-16T10:22:58;5.60;;;1.40;;
69596;SDS011;56802;51.184;-115.558;2022-10-16T10:34:41;5.70;;;1.90;;
69596;SDS011;56802;51.184;-115.558;2022-10-16T10:40:49;5.30;;;1.90;;
69596;SDS011;56802;51.184;-115.558;2022-10-16T10:43:30;5.70;;;2.10;;
69596;SDS011;56802;51.184;-115.558;2022-10-16T10:46:10;5.20;;;1.90;;
69596;SDS011;56802;51.184;-115.558;2022-10-16T10:54:47;5.00;;;1.80;;
69596;SDS011;56802;51.184;-115.558;2022-10-16T10:57:25;5.10;;;1.70;;
69596;SDS011;56802;51.184;-115.558;2022-10-16T11:05:42;4.60;;;1.60;;
69596;SDS011;56802;51.184;-115.558;2022-10-16T11:11:45;5.40;;;1.80;;
69596;SDS011;56802;51.184;-115.558;2022-10-16T11:17:11;5.30;;;1.70;;
69596;SDS011;56802;51.184;-115.558;2022-10-16T11:25:36;5.90;;;1.90;;
69596;SDS011;56802;51.184;-115.558;2022-10-16T11:28:25;5.60;;;2.10;;
69596;SDS011;56802;51.184;-115.558;2022-10-16T11:31:28;5.00;;;1.80;;
69596;SDS011;56802;51.184;-115.558;2022-10-16T11:37:38;5.60;;;1.90;;
69596;SDS011;56802;51.184;-115.558;2022-10-16T11:40:33;5.00;;;1.70;;
69596;SDS011;56802;51.184;-115.558;2022-10-16T11:46:00;4.80;;;1.60;;
69596;SDS011;56802;51.184;-115.558;2022-10-16T11:51:29;5.40;;;1.60;;
69596;SDS011;56802;51.184;-115.558;2022-10-16T11:54:41;5.40;;;1.90;;
69596;SDS011;56802;51.184;-115.558;2022-10-16T11:57:34;5.00;;;1.80;;
69596;SDS011;56802;51.184;-115.558;2022-10-16T12:00:29;5.90;;;1.90;;
69596;SDS011;56802;51.184;-115.558;2022-10-16T12:06:25;5.20;;;1.70;;
69596;SDS011;56802;51.184;-115.558;2022-10-16T12:09:26;5.00;;;2.00;;
69596;SDS011;56802;51.184;-115.558;2022-10-16T12:11:58;5.20;;;1.70;;
69596;SDS011;56802;51.184;-115.558;2022-10-16T12:14:40;4.90;;;1.40;;
69596;SDS011;56802;51.184;-115.558;2022-10-16T12:17:37;5.10;;;1.70;;
69596;SDS011;56802;51.184;-115.558;2022-10-16T12:23:03;5.40;;;1.80;;
69596;SDS011;56802;51.184;-115.558;2022-10-16T12:25:39;5.30;;;1.70;;
69596;SDS011;56802;51.184;-115.558;2022-10-16T12:28:25;6.00;;;1.80;;
69596;SDS011;56802;51.184;-115.558;2022-10-16T12:31:01;5.60;;;1.70;;
69596;SDS011;56802;51.184;-115.558;2022-10-16T12:33:53;4.70;;;1.50;;
69596;SDS011;56802;51.184;-115.558;2022-10-16T12:36:32;5.70;;;2.00;;
69596;SDS011;56802;51.184;-115.558;2022-10-16T12:39:02;6.80;;;1.90;;
69596;SDS011;56802;51.184;-115.558;2022-10-16T12:41:36;5.20;;;1.70;;
69596;SDS011;56802;51.184;-115.558;2022-10-16T12:44:23;5.30;;;1.70;;
69596;SDS011;56802;51.184;-115.558;2022-10-16T12:46:54;5.20;;;1.80;;
69596;SDS011;56802;51.184;-115.558;2022-10-16T12:49:35;5.40;;;1.80;;
69596;SDS011;56802;51.184;-115.558;2022-10-16T12:55:16;5.90;;;1.80;;
69596;SDS011;56802;51.184;-115.558;2022-10-16T12:58:27;5.30;;;1.80;;
69596;SDS011;56802;51.184;-115.558;2022-10-16T13:01:10;5.20;;;1.80;;
69596;SDS011;56802;51.184;-115.558;2022-10-16T13:10:26;7.10;;;1.60;;
69596;SDS011;56802;51.184;-115.558;2022-10-16T13:16:01;6.30;;;2.10;;
69596;SDS011;56802;51.184;-115.558;2022-10-16T13:24:53;5.80;;;1.90;;
69596;SDS011;56802;51.184;-115.558;2022-10-16T13:27:44;4.90;;;1.60;;
69596;SDS011;56802;51.184;-115.558;2022-10-16T13:30:26;6.00;;;1.80;;
69596;SDS011;56802;51.184;-115.558;2022-10-16T13:35:53;6.00;;;1.90;;
69596;SDS011;56802;51.184;-115.558;2022-10-16T13:38:25;5.20;;;1.60;;
69596;SDS011;56802;51.184;-115.558;2022-10-16T13:41:06;5.00;;;1.60;;
69596;SDS011;56802;51.184;-115.558;2022-10-16T13:43:52;5.70;;;1.80;;
69596;SDS011;56802;51.184;-115.558;2022-10-16T13:46:25;6.10;;;1.60;;
69596;SDS011;56802;51.184;-115.558;2022-10-16T13:49:11;6.10;;;1.90;;
69596;SDS011;56802;51.184;-115.558;2022-10-16T13:51:57;5.10;;;1.60;;
69596;SDS011;56802;51.184;-115.558;2022-10-16T13:54:28;5.70;;;1.70;;
69596;SDS011;56802;51.184;-115.558;2022-10-16T13:57:05;4.90;;;1.70;;
69596;SDS011;56802;51.184;-115.558;2022-10-16T13:59:53;6.30;;;1.80;;
69596;SDS011;56802;51.184;-115.558;2022-10-16T14:05:09;5.20;;;1.80;;
69596;SDS011;56802;51.184;-115.558;2022-10-16T14:07:38;5.50;;;1.80;;
69596;SDS011;56802;51.184;-115.558;2022-10-16T14:10:27;5.30;;;1.60;;
69596;SDS011;56802;51.184;-115.558;2022-10-16T14:13:04;6.50;;;1.60;;
69596;SDS011;56802;51.184;-115.558;2022-10-16T14:15:36;5.00;;;1.50;;
69596;SDS011;56802;51.184;-115.558;2022-10-16T14:18:06;5.20;;;1.70;;
69596;SDS011;56802;51.184;-115.558;2022-10-16T14:20:35;4.90;;;1.30;;
69596;SDS011;56802;51.184;-115.558;2022-10-16T14:23:30;5.20;;;1.60;;
69596;SDS011;56802;51.184;-115.558;2022-10-16T14:28:39;5.60;;;1.50;;
69596;SDS011;56802;51.184;-115.558;2022-10-16T14:34:31;5.30;;;2.00;;
69596;SDS011;56802;51.184;-115.558;2022-10-16T14:37:24;5.30;;;1.60;;
69596;SDS011;56802;51.184;-115.558;2022-10-16T14:39:57;5.50;;;2.00;;
69596;SDS011;56802;51.184;-115.558;2022-10-16T14:42:28;6.40;;;2.10;;
69596;SDS011;56802;51.184;-115.558;2022-10-16T14:44:58;5.80;;;2.00;;
69596;SDS011;56802;51.184;-115.558;2022-10-16T14:47:28;5.10;;;1.90;;
69596;SDS011;56802;51.184;-115.558;2022-10-16T14:49:57;5.90;;;1.80;;
69596;SDS011;56802;51.184;-115.558;2022-10-16T14:52:27;6.10;;;1.60;;
69596;SDS011;56802;51.184;-115.558;2022-10-16T14:54:57;5.20;;;1.70;;
69596;SDS011;56802;51.184;-115.558;2022-10-16T14:57:27;5.00;;;1.60;;
69596;SDS011;56802;51.184;-115.558;2022-10-16T15:00:02;5.40;;;1.80;;
69596;SDS011;56802;51.184;-115.558;2022-10-16T15:02:37;4.70;;;1.50;;
69596;SDS011;56802;51.184;-115.558;2022-10-16T15:05:16;5.00;;;1.80;;
69596;SDS011;56802;51.184;-115.558;2022-10-16T15:07:56;6.10;;;1.90;;
69596;SDS011;56802;51.184;-115.558;2022-10-16T15:10:27;5.80;;;2.10;;
69596;SDS011;56802;51.184;-115.558;2022-10-16T15:12:57;5.60;;;1.40;;
69596;SDS011;56802;51.184;-115.558;2022-10-16T15:15:41;5.10;;;1.90;;
69596;SDS011;56802;51.184;-115.558;2022-10-16T15:18:12;5.90;;;1.90;;
69596;SDS011;56802;51.184;-115.558;2022-10-16T15:20:49;6.00;;;2.10;;
69596;SDS011;56802;51.184;-115.558;2022-10-16T15:23:21;5.50;;;1.70;;
69596;SDS011;56802;51.184;-115.558;2022-10-16T15:25:53;6.30;;;1.90;;
69596;SDS011;56802;51.184;-115.558;2022-10-16T15:28:24;6.30;;;2.00;;
69596;SDS011;56802;51.184;-115.558;2022-10-16T15:30:56;5.60;;;1.90;;
69596;SDS011;56802;51.184;-115.558;2022-10-16T15:33:27;5.30;;;1.90;;
69596;SDS011;56802;51.184;-115.558;2022-10-16T15:36:06;4.90;;;1.80;;
69596;SDS011;56802;51.184;-115.558;2022-10-16T15:38:36;5.10;;;1.70;;
69596;SDS011;56802;51.184;-115.558;2022-10-16T15:41:05;5.60;;;1.70;;
69596;SDS011;56802;51.184;-115.558;2022-10-16T15:43:35;4.90;;;1.70;;
69596;SDS011;56802;51.184;-115.558;2022-10-16T15:46:06;5.00;;;1.80;;
69596;SDS011;56802;51.184;-115.558;2022-10-16T15:48:39;5.10;;;1.80;;
69596;SDS011;56802;51.184;-115.558;2022-10-16T15:51:08;4.70;;;1.40;;
69596;SDS011;56802;51.184;-115.558;2022-10-16T15:53:37;4.70;;;1.60;;
69596;SDS011;56802;51.184;-115.558;2022-10-16T15:56:08;7.30;;;2.20;;
69596;SDS011;56802;51.184;-115.558;2022-10-16T15:58:39;5.30;;;1.80;;
69596;SDS011;56802;51.184;-115.558;2022-10-16T16:01:09;6.60;;;2.30;;
69596;SDS011;56802;51.184;-115.558;2022-10-16T16:03:39;7.40;;;1.50;;
69596;SDS011;56802;51.184;-115.558;2022-10-16T16:06:10;4.70;;;1.30;;
69596;SDS011;56802;51.184;-115.558;2022-10-16T16:08:41;5.40;;;1.60;;
69596;SDS011;56802;51.184;-115.558;2022-10-16T16:11:12;5.40;;;1.70;;
69596;SDS011;56802;51.184;-115.558;2022-10-16T16:13:43;5.10;;;1.60;;
69596;SDS011;56802;51.184;-115.558;2022-10-16T16:16:14;4.70;;;1.40;;
69596;SDS011;56802;51.184;-115.558;2022-10-16T16:18:44;4.70;;;1.40;;
69596;SDS011;56802;51.184;-115.558;2022-10-16T16:21:14;5.20;;;1.90;;
69596;SDS011;56802;51.184;-115.558;2022-10-16T16:23:43;6.10;;;1.60;;
69596;SDS011;56802;51.184;-115.558;2022-10-16T16:26:25;6.30;;;1.80;;
69596;SDS011;56802;51.184;-115.558;2022-10-16T16:29:00;4.80;;;1.40;;
69596;SDS011;56802;51.184;-115.558;2022-10-16T16:31:32;5.20;;;1.70;;
69596;SDS011;56802;51.184;-115.558;2022-10-16T16:34:03;4.80;;;1.50;;
69596;SDS011;56802;51.184;-115.558;2022-10-16T16:36:33;6.20;;;1.70;;
69596;SDS011;56802;51.184;-115.558;2022-10-16T16:39:03;5.20;;;1.80;;
69596;SDS011;56802;51.184;-115.558;2022-10-16T16:41:33;5.90;;;1.90;;
69596;SDS011;56802;51.184;-115.558;2022-10-16T16:44:05;5.20;;;1.50;;
69596;SDS011;56802;51.184;-115.558;2022-10-16T16:46:37;5.30;;;1.70;;
69596;SDS011;56802;51.184;-115.558;2022-10-16T16:49:08;6.20;;;1.70;;